Thornburg, Iowa
Current Conditions -  °F | °C
As of 7:35 AM on Saturday 20 Dec 2014 (Local Time) from KOOA Reporting Station
Haze Haze  
Wind Chill: 31°   Ceiling: 400
Heat Index: 31°   Visibility: 2mi
Dew Point: 30°   Wind: 3mph
Humidity: 97%   Direction: 150°SSE
Pressure: 30.2"   Gusts: NA
Location:  41.45°N, 92.34°W
Report Text: KOOA 201335Z AUTO 15003KT 2SM BR OVC004 M01/M01 A3020 RMK AO2 T10071011
Loading
Personal Weather Stations






























Interactive Weather Map New forecast layout! Learn more

10-Day Weather Forecast

Advertisements
Track Severe Weather on mobile